Darstellungsparameter: Aktuell verwendete Einstellungen:
Skalierung der Graphiken ... ?
xyx+y,   Skalierungsfaktor:      Skalierung: Modus: x, Faktor: 1
Darstellungszeitraum ... ?
Vom - - bis: - -   Zeitraum: 30.08.2020 - 30.08.2020
Min/Max/Avg-Anzeige ... ?
Zeige MMA aktuell
Zeige MMA Monat
Zeige MMA alles
Zeige --A aktuell
Zeige --A Monat
Zeige --A alles
Keine MMA-Anzeige
MMA:
Average (ber die Originaldaten)
MMA-Basis: 30.08.2020 - 30.08.2020
Quicknavigation für Darstellung... ?
Tage:      1T, 2T, 3T, 5T -1T -2T -3T -5T +1T +2T +3T +5T
Wochen: 1W, 2W, 3W -1W -2W -3W +1W +2W +3W
Monate: 1M, 3M, 6M -1M -3M -6M +1M +3M +6M
Jahre:    1J, 3J, 5J, 10J -1J -3J -5J -10J +1J +3J +5J +10J
Nutze für die Darstellung ... ?
Originaldaten oder Mittelwerte auf ...
Stundenbasis Tagesbasis Wochenbasis
Monatsbasis Jahresbasis      Datenbasis: Original-Daten
Darstellen als:
Statistik (Auto) Statistik J:M      Darstellung:
Zur Graphik,    zurück zur Übersicht aller Sensoren.
 
Tabellarische Datenbersicht: ?
 
Sensor: Nr:Datum:Temp:Abs-Feuchte:Windchill:Wind:
Aussen-T/F 1 30-08-2020 00:00:00 13.3 C 10.63 g/m*3 13.3 C 6.4 km/h
2 30-08-2020 00:05:00 13.3 C 10.63 g/m*3 13.3 C 1.6 km/h
3 30-08-2020 00:10:00 13.2 C 10.56 g/m*3 13.2 C 0 km/h
4 30-08-2020 00:15:00 13.2 C 10.56 g/m*3 13.2 C 0 km/h
5 30-08-2020 00:20:00 13.1 C 10.5 g/m*3 13.1 C 0 km/h
6 30-08-2020 00:25:00 13.1 C 10.5 g/m*3 13.1 C 0 km/h
7 30-08-2020 00:30:00 13 C 10.43 g/m*3 13 C 0 km/h
8 30-08-2020 00:35:00 12.9 C 10.48 g/m*3 12.9 C 0 km/h
9 30-08-2020 00:40:00 12.8 C 10.42 g/m*3 12.8 C 0 km/h
10 30-08-2020 00:45:00 12.8 C 10.42 g/m*3 12.8 C 0 km/h
11 30-08-2020 00:50:00 12.8 C 10.42 g/m*3 12.8 C 0 km/h
12 30-08-2020 00:55:00 12.8 C 10.42 g/m*3 12.8 C 0 km/h
13 30-08-2020 01:00:00 12.8 C 10.42 g/m*3 12.8 C 0 km/h
14 30-08-2020 01:05:00 12.7 C 10.35 g/m*3 12.7 C 0 km/h
15 30-08-2020 01:10:00 12.6 C 10.29 g/m*3 12.6 C 0 km/h
16 30-08-2020 01:15:00 12.6 C 10.29 g/m*3 12.6 C 0 km/h
17 30-08-2020 01:20:00 12.4 C 10.16 g/m*3 12.4 C 0 km/h
18 30-08-2020 01:25:00 12.4 C 10.16 g/m*3 12.4 C 0 km/h
19 30-08-2020 01:30:00 12.3 C 10.1 g/m*3 12.3 C 0 km/h
20 30-08-2020 01:35:00 12.2 C 10.04 g/m*3 12.2 C 1.6 km/h
21 30-08-2020 01:40:00 12.1 C 9.97 g/m*3 12.1 C 1.6 km/h
22 30-08-2020 01:45:00 12 C 9.91 g/m*3 12 C 0 km/h
23 30-08-2020 01:50:00 11.9 C 9.96 g/m*3 11.9 C 0 km/h
24 30-08-2020 01:55:00 11.9 C 9.96 g/m*3 11.9 C 3.2 km/h
25 30-08-2020 02:00:00 11.8 C 9.89 g/m*3 11.8 C 0 km/h
Sensor: Nr:Datum:Temp:Abs-Feuchte:Windchill:Wind:
Aussen-T/F 26 30-08-2020 02:05:00 11.8 C 9.89 g/m*3 11.8 C 0 km/h
27 30-08-2020 02:10:00 11.7 C 9.83 g/m*3 11.7 C 0 km/h
28 30-08-2020 02:15:00 11.7 C 9.83 g/m*3 11.7 C 0 km/h
29 30-08-2020 02:20:00 11.7 C 9.83 g/m*3 11.7 C 0 km/h
30 30-08-2020 02:25:00 11.6 C 9.77 g/m*3 11.6 C 0 km/h
31 30-08-2020 02:30:00 11.6 C 9.77 g/m*3 11.6 C 0 km/h
32 30-08-2020 02:35:00 11.6 C 9.77 g/m*3 11.6 C 0 km/h
33 30-08-2020 02:40:00 11.5 C 9.71 g/m*3 11.5 C 0 km/h
34 30-08-2020 02:45:00 11.4 C 9.65 g/m*3 11.4 C 0 km/h
35 30-08-2020 02:50:00 11.3 C 9.59 g/m*3 11.3 C 0 km/h
36 30-08-2020 02:55:00 11.3 C 9.59 g/m*3 11.3 C 0 km/h
37 30-08-2020 03:00:00 11.2 C 9.53 g/m*3 11.2 C 0 km/h
38 30-08-2020 03:05:00 11.2 C 9.53 g/m*3 11.2 C 0 km/h
39 30-08-2020 03:10:00 11.2 C 9.53 g/m*3 11.2 C 0 km/h
40 30-08-2020 03:15:00 11.2 C 9.53 g/m*3 11.2 C 0 km/h
41 30-08-2020 03:20:00 11.1 C 9.47 g/m*3 11.1 C 0 km/h
42 30-08-2020 03:25:00 11.1 C 9.57 g/m*3 11.1 C 0 km/h
43 30-08-2020 03:30:00 11.1 C 9.57 g/m*3 11.1 C 0 km/h
44 30-08-2020 03:35:00 11.1 C 9.57 g/m*3 11.1 C 0 km/h
45 30-08-2020 03:40:00 11 C 9.51 g/m*3 11 C 0 km/h
46 30-08-2020 03:45:00 10.9 C 9.35 g/m*3 10.9 C 0 km/h
47 30-08-2020 03:50:00 10.9 C 9.35 g/m*3 10.9 C 0 km/h
48 30-08-2020 03:55:00 10.8 C 9.29 g/m*3 10.8 C 0 km/h
49 30-08-2020 04:00:00 10.8 C 9.39 g/m*3 10.8 C 0 km/h
50 30-08-2020 04:05:00 10.7 C 9.33 g/m*3 10.7 C 0 km/h
Sensor: Nr:Datum:Temp:Abs-Feuchte:Windchill:Wind:
Aussen-T/F 51 30-08-2020 04:10:00 10.7 C 9.33 g/m*3 10.7 C 0 km/h
52 30-08-2020 04:15:00 10.7 C 9.33 g/m*3 10.7 C 0 km/h
53 30-08-2020 04:20:00 10.6 C 9.27 g/m*3 10.6 C 0 km/h
54 30-08-2020 04:25:00 10.6 C 9.27 g/m*3 10.6 C 0 km/h
55 30-08-2020 04:30:00 10.6 C 9.27 g/m*3 10.6 C 0 km/h
56 30-08-2020 04:35:00 10.6 C 9.27 g/m*3 10.6 C 0 km/h
57 30-08-2020 04:40:00 10.7 C 9.33 g/m*3 10.7 C 0 km/h
58 30-08-2020 04:45:00 10.7 C 9.33 g/m*3 10.7 C 0 km/h
59 30-08-2020 04:50:00 10.7 C 9.33 g/m*3 10.7 C 0 km/h
60 30-08-2020 04:55:00 10.7 C 9.33 g/m*3 10.7 C 0 km/h
61 30-08-2020 05:00:00 10.8 C 9.49 g/m*3 10.8 C 0 km/h
62 30-08-2020 05:05:00 10.8 C 9.49 g/m*3 10.8 C 0 km/h
63 30-08-2020 05:10:00 10.9 C 9.55 g/m*3 10.9 C 0 km/h
64 30-08-2020 05:15:00 10.9 C 9.55 g/m*3 10.9 C 0 km/h
65 30-08-2020 05:20:00 11 C 9.61 g/m*3 11 C 0 km/h
66 30-08-2020 05:25:00 11 C 9.61 g/m*3 11 C 0 km/h
67 30-08-2020 05:30:00 11 C 9.61 g/m*3 11 C 0 km/h
68 30-08-2020 05:35:00 11 C 9.51 g/m*3 11 C 0 km/h
69 30-08-2020 05:40:00 10.9 C 9.55 g/m*3 10.9 C 0 km/h
70 30-08-2020 05:45:00 10.8 C 9.39 g/m*3 10.8 C 0 km/h
71 30-08-2020 05:50:00 10.7 C 9.33 g/m*3 10.7 C 0 km/h
72 30-08-2020 05:55:00 10.6 C 9.27 g/m*3 10.6 C 0 km/h
73 30-08-2020 06:00:00 10.6 C 9.27 g/m*3 10.6 C 0 km/h
74 30-08-2020 06:05:00 10.6 C 9.27 g/m*3 10.6 C 0 km/h
75 30-08-2020 06:10:00 10.6 C 9.37 g/m*3 10.6 C 0 km/h
Sensor: Nr:Datum:Temp:Abs-Feuchte:Windchill:Wind:
Aussen-T/F 76 30-08-2020 06:15:00 10.6 C 9.37 g/m*3 10.6 C 0 km/h
77 30-08-2020 06:20:00 10.6 C 9.37 g/m*3 10.6 C 0 km/h
78 30-08-2020 06:25:00 10.7 C 9.43 g/m*3 10.7 C 0 km/h
79 30-08-2020 06:30:00 10.7 C 9.43 g/m*3 10.7 C 0 km/h
80 30-08-2020 06:35:00 10.7 C 9.43 g/m*3 10.7 C 0 km/h
81 30-08-2020 06:40:00 10.7 C 9.43 g/m*3 10.7 C 0 km/h
82 30-08-2020 06:45:00 10.7 C 9.43 g/m*3 10.7 C 0 km/h
83 30-08-2020 06:50:00 10.7 C 9.43 g/m*3 10.7 C 0 km/h
84 30-08-2020 06:55:00 10.8 C 9.49 g/m*3 10.8 C 0 km/h
85 30-08-2020 07:00:00 10.8 C 9.49 g/m*3 10.29 C 6.4 km/h
86 30-08-2020 07:05:00 10.8 C 9.49 g/m*3 10.29 C 6.4 km/h
87 30-08-2020 07:10:00 10.9 C 9.55 g/m*3 10.9 C 0 km/h
88 30-08-2020 07:15:00 10.9 C 9.55 g/m*3 10.9 C 1.6 km/h
89 30-08-2020 07:20:00 11 C 9.61 g/m*3 11 C 0 km/h
90 30-08-2020 07:25:00 11.1 C 9.67 g/m*3 11.1 C 0 km/h
91 30-08-2020 07:30:00 11.1 C 9.67 g/m*3 11.1 C 0 km/h
92 30-08-2020 07:35:00 11.2 C 9.73 g/m*3 11.2 C 0 km/h
93 30-08-2020 07:40:00 11.2 C 9.73 g/m*3 11.2 C 0 km/h
94 30-08-2020 07:45:00 11.3 C 9.79 g/m*3 11.3 C 0 km/h
95 30-08-2020 07:50:00 11.4 C 9.85 g/m*3 11.4 C 0 km/h
96 30-08-2020 07:55:00 11.5 C 9.92 g/m*3 11.5 C 0 km/h
97 30-08-2020 08:00:00 11.6 C 9.98 g/m*3 11.6 C 1.6 km/h
98 30-08-2020 08:05:00 11.7 C 10.04 g/m*3 11.7 C 1.6 km/h
99 30-08-2020 08:10:00 11.7 C 10.04 g/m*3 11.7 C 0 km/h
100 30-08-2020 08:15:00 11.8 C 10.1 g/m*3 11.8 C 0 km/h
Sensor: Nr:Datum:Temp:Abs-Feuchte:Windchill:Wind:
Aussen-T/F 101 30-08-2020 08:20:00 11.8 C 10.1 g/m*3 11.8 C 0 km/h
102 30-08-2020 08:25:00 11.9 C 10.17 g/m*3 11.9 C 0 km/h
103 30-08-2020 08:30:00 11.9 C 10.17 g/m*3 11.9 C 0 km/h
104 30-08-2020 08:35:00 12 C 10.23 g/m*3 12 C 0 km/h
105 30-08-2020 08:40:00 12.1 C 10.29 g/m*3 12.1 C 0 km/h
106 30-08-2020 08:45:00 12.2 C 10.36 g/m*3 12.2 C 0 km/h
107 30-08-2020 08:50:00 12.3 C 10.42 g/m*3 12.3 C 0 km/h
108 30-08-2020 08:55:00 12.3 C 10.53 g/m*3 12.3 C 0 km/h
109 30-08-2020 09:00:00 12.4 C 10.6 g/m*3 12.4 C 0 km/h
110 30-08-2020 09:05:00 12.6 C 10.62 g/m*3 12.6 C 0 km/h
111 30-08-2020 09:10:00 12.8 C 10.87 g/m*3 12.8 C 0 km/h
112 30-08-2020 09:15:00 13 C 11 g/m*3 13 C 0 km/h
113 30-08-2020 09:20:00 13.1 C 11.07 g/m*3 13.1 C 0 km/h
114 30-08-2020 09:25:00 13.2 C 11.14 g/m*3 13.2 C 0 km/h
115 30-08-2020 09:30:00 13.2 C 11.02 g/m*3 13.2 C 0 km/h
116 30-08-2020 09:35:00 13.4 C 11.16 g/m*3 13.4 C 0 km/h
117 30-08-2020 09:40:00 13.4 C 11.16 g/m*3 13.4 C 0 km/h
118 30-08-2020 09:45:00 13.5 C 11.23 g/m*3 13.5 C 0 km/h
119 30-08-2020 09:50:00 13.6 C 11.18 g/m*3 13.6 C 1.6 km/h
120 30-08-2020 09:55:00 13.7 C 11.13 g/m*3 13.7 C 6.4 km/h
121 30-08-2020 10:00:00 13.8 C 11.2 g/m*3 13.8 C 6.4 km/h
122 30-08-2020 10:05:00 14 C 11.1 g/m*3 14 C 8.1 km/h
123 30-08-2020 10:10:00 14.3 C 11.3 g/m*3 14.3 C 6.4 km/h
124 30-08-2020 10:15:00 14.4 C 11.25 g/m*3 14.4 C 6.4 km/h
125 30-08-2020 10:20:00 14.6 C 11.14 g/m*3 14.6 C 4.8 km/h
Sensor: Nr:Datum:Temp:Abs-Feuchte:Windchill:Wind:
Aussen-T/F 126 30-08-2020 10:25:00 14.8 C 11.27 g/m*3 14.8 C 4.8 km/h
127 30-08-2020 10:30:00 14.9 C 11.22 g/m*3 14.9 C 6.4 km/h
128 30-08-2020 10:35:00 15.1 C 11.35 g/m*3 15.1 C 3.2 km/h
129 30-08-2020 10:40:00 15.2 C 11.42 g/m*3 15.2 C 4.8 km/h
130 30-08-2020 10:45:00 15.3 C 11.23 g/m*3 15.3 C 6.4 km/h
131 30-08-2020 10:50:00 15.4 C 11.17 g/m*3 15.4 C 11.3 km/h
132 30-08-2020 10:55:00 15.6 C 11.3 g/m*3 15.6 C 6.4 km/h
133 30-08-2020 11:00:00 15.7 C 11.24 g/m*3 15.7 C 4.8 km/h
134 30-08-2020 11:05:00 15.8 C 11.31 g/m*3 15.8 C 6.4 km/h
135 30-08-2020 11:10:00 15.9 C 11.38 g/m*3 15.9 C 8.1 km/h
136 30-08-2020 11:15:00 16 C 11.44 g/m*3 16 C 1.6 km/h
137 30-08-2020 11:20:00 16.1 C 11.38 g/m*3 16.1 C 6.4 km/h
138 30-08-2020 11:25:00 16.2 C 11.45 g/m*3 16.2 C 9.7 km/h
139 30-08-2020 11:30:00 16.3 C 11.52 g/m*3 16.3 C 6.4 km/h
140 30-08-2020 11:35:00 16.4 C 11.45 g/m*3 16.4 C 6.4 km/h
141 30-08-2020 11:40:00 16.4 C 11.45 g/m*3 16.4 C 9.7 km/h
142 30-08-2020 11:45:00 16.5 C 11.51 g/m*3 16.5 C 6.4 km/h
143 30-08-2020 11:50:00 16.6 C 11.44 g/m*3 16.6 C 6.4 km/h
144 30-08-2020 11:55:00 16.6 C 11.44 g/m*3 16.6 C 6.4 km/h
145 30-08-2020 12:00:00 16.7 C 11.51 g/m*3 16.7 C 4.8 km/h
146 30-08-2020 12:05:00 16.7 C 11.51 g/m*3 16.7 C 8.1 km/h
147 30-08-2020 12:10:00 16.8 C 11.58 g/m*3 16.8 C 6.4 km/h
148 30-08-2020 12:15:00 16.8 C 11.44 g/m*3 16.8 C 9.7 km/h
149 30-08-2020 12:20:00 16.8 C 11.58 g/m*3 16.8 C 8.1 km/h
150 30-08-2020 12:25:00 16.9 C 11.51 g/m*3 16.9 C 9.7 km/h
Sensor: Nr:Datum:Temp:Abs-Feuchte:Windchill:Wind:
Aussen-T/F 151 30-08-2020 12:30:00 17.1 C 11.65 g/m*3 17.1 C 11.3 km/h
152 30-08-2020 12:35:00 17.2 C 11.57 g/m*3 17.2 C 9.7 km/h
153 30-08-2020 12:40:00 17.2 C 11.42 g/m*3 17.2 C 6.4 km/h
154 30-08-2020 12:45:00 17.3 C 11.49 g/m*3 17.3 C 11.3 km/h
155 30-08-2020 12:50:00 17.4 C 11.56 g/m*3 17.4 C 3.2 km/h
156 30-08-2020 12:55:00 17.5 C 11.63 g/m*3 17.5 C 8.1 km/h
157 30-08-2020 13:00:00 17.6 C 11.7 g/m*3 17.6 C 8.1 km/h
158 30-08-2020 13:05:00 17.6 C 11.7 g/m*3 17.6 C 3.2 km/h
159 30-08-2020 13:10:00 17.7 C 11.62 g/m*3 17.7 C 4.8 km/h
160 30-08-2020 13:15:00 17.9 C 11.76 g/m*3 17.9 C 3.2 km/h
161 30-08-2020 13:20:00 18 C 11.83 g/m*3 18 C 8.1 km/h
162 30-08-2020 13:25:00 18 C 11.67 g/m*3 18 C 6.4 km/h
163 30-08-2020 13:30:00 18.1 C 11.59 g/m*3 18.1 C 4.8 km/h
164 30-08-2020 13:35:00 18.1 C 11.59 g/m*3 18.1 C 6.4 km/h
165 30-08-2020 13:40:00 18.2 C 11.5 g/m*3 18.2 C 6.4 km/h
166 30-08-2020 13:45:00 18.2 C 11.5 g/m*3 18.2 C 4.8 km/h
167 30-08-2020 13:50:00 18.4 C 11.64 g/m*3 18.4 C 8.1 km/h
168 30-08-2020 13:55:00 18.4 C 11.48 g/m*3 18.4 C 8.1 km/h
169 30-08-2020 14:00:00 18.5 C 11.55 g/m*3 18.5 C 4.8 km/h
170 30-08-2020 14:05:00 18.6 C 11.46 g/m*3 18.6 C 8.1 km/h
171 30-08-2020 14:10:00 18.6 C 11.46 g/m*3 18.6 C 4.8 km/h
172 30-08-2020 14:15:00 18.7 C 11.53 g/m*3 18.7 C 0 km/h
173 30-08-2020 14:20:00 18.8 C 11.6 g/m*3 18.8 C 8.1 km/h
174 30-08-2020 14:25:00 18.9 C 11.34 g/m*3 18.9 C 8.1 km/h
175 30-08-2020 14:30:00 18.8 C 11.27 g/m*3 18.8 C 6.4 km/h
Sensor: Nr:Datum:Temp:Abs-Feuchte:Windchill:Wind:
Aussen-T/F 176 30-08-2020 14:35:00 18.8 C 11.27 g/m*3 18.8 C 6.4 km/h
177 30-08-2020 14:40:00 18.9 C 11.34 g/m*3 18.9 C 6.4 km/h
178 30-08-2020 14:45:00 19.1 C 11.47 g/m*3 19.1 C 6.4 km/h
179 30-08-2020 14:50:00 19.2 C 11.87 g/m*3 19.2 C 6.4 km/h
180 30-08-2020 14:55:00 19.3 C 11.78 g/m*3 19.3 C 3.2 km/h
181 30-08-2020 15:00:00 19.4 C 11.51 g/m*3 19.4 C 9.7 km/h
182 30-08-2020 15:05:00 19.4 C 11.51 g/m*3 19.4 C 6.4 km/h
183 30-08-2020 15:10:00 19.5 C 11.41 g/m*3 19.5 C 8.1 km/h
184 30-08-2020 15:15:00 19.5 C 11.24 g/m*3 19.5 C 8.1 km/h
185 30-08-2020 15:20:00 19.6 C 11.14 g/m*3 19.6 C 8.1 km/h
186 30-08-2020 15:25:00 19.6 C 11.48 g/m*3 19.6 C 3.2 km/h
187 30-08-2020 15:30:00 19.7 C 11.38 g/m*3 19.7 C 4.8 km/h
188 30-08-2020 15:35:00 19.8 C 10.76 g/m*3 19.8 C 11.3 km/h
189 30-08-2020 15:40:00 20.1 C 10.6 g/m*3 20.1 C 9.7 km/h
190 30-08-2020 15:45:00 20.3 C 10.9 g/m*3 20.3 C 6.4 km/h
191 30-08-2020 15:50:00 20.7 C 11.16 g/m*3 20.7 C 6.4 km/h
192 30-08-2020 15:55:00 21.1 C 11.24 g/m*3 21.1 C 6.4 km/h
193 30-08-2020 16:00:00 21.2 C 10.93 g/m*3 21.2 C 11.3 km/h
194 30-08-2020 16:05:00 21.4 C 11.25 g/m*3 21.4 C 6.4 km/h
195 30-08-2020 16:10:00 21.4 C 10.69 g/m*3 21.4 C 9.7 km/h
196 30-08-2020 16:15:00 21.4 C 10.5 g/m*3 21.4 C 9.7 km/h
197 30-08-2020 16:20:00 21.4 C 10.5 g/m*3 21.4 C 9.7 km/h
198 30-08-2020 16:25:00 21.4 C 10.31 g/m*3 21.4 C 8.1 km/h
199 30-08-2020 16:30:00 21.3 C 10.44 g/m*3 21.3 C 8.1 km/h
200 30-08-2020 16:35:00 21.3 C 10.07 g/m*3 21.3 C 8.1 km/h
Sensor: Nr:Datum:Temp:Abs-Feuchte:Windchill:Wind:
Aussen-T/F 201 30-08-2020 16:40:00 21.2 C 10.38 g/m*3 21.2 C 9.7 km/h
202 30-08-2020 16:45:00 21.2 C 10.38 g/m*3 21.2 C 4.8 km/h
203 30-08-2020 16:50:00 21.3 C 10.62 g/m*3 21.3 C 4.8 km/h
204 30-08-2020 16:55:00 21.4 C 10.5 g/m*3 21.4 C 6.4 km/h
205 30-08-2020 17:00:00 21.5 C 10.37 g/m*3 21.5 C 8.1 km/h
206 30-08-2020 17:05:00 21.4 C 10.12 g/m*3 21.4 C 11.3 km/h
207 30-08-2020 17:10:00 21.3 C 10.25 g/m*3 21.3 C 6.4 km/h
208 30-08-2020 17:15:00 21.3 C 10.25 g/m*3 21.3 C 9.7 km/h
209 30-08-2020 17:20:00 21.3 C 10.44 g/m*3 21.3 C 4.8 km/h
210 30-08-2020 17:25:00 21.3 C 10.25 g/m*3 21.3 C 9.7 km/h
211 30-08-2020 17:30:00 21.5 C 10.37 g/m*3 21.5 C 4.8 km/h
212 30-08-2020 17:35:00 21.7 C 10.68 g/m*3 21.7 C 6.4 km/h
213 30-08-2020 17:40:00 21.8 C 10.36 g/m*3 21.8 C 8.1 km/h
214 30-08-2020 17:45:00 22 C 10.48 g/m*3 22 C 9.7 km/h
215 30-08-2020 17:50:00 22.2 C 10.41 g/m*3 22.2 C 6.4 km/h
216 30-08-2020 17:55:00 22.2 C 10.01 g/m*3 22.2 C 8.1 km/h
217 30-08-2020 18:00:00 22.1 C 10.35 g/m*3 22.1 C 6.4 km/h
218 30-08-2020 18:05:00 21.9 C 9.65 g/m*3 21.9 C 9.7 km/h
219 30-08-2020 18:10:00 21.8 C 9.78 g/m*3 21.8 C 4.8 km/h
220 30-08-2020 18:15:00 21.7 C 9.73 g/m*3 21.7 C 0 km/h
221 30-08-2020 18:20:00 21.7 C 10.11 g/m*3 21.7 C 8.1 km/h
222 30-08-2020 18:25:00 21.6 C 9.86 g/m*3 21.6 C 4.8 km/h
223 30-08-2020 18:30:00 21.6 C 9.86 g/m*3 21.6 C 4.8 km/h
224 30-08-2020 18:35:00 21.6 C 9.86 g/m*3 21.6 C 3.2 km/h
225 30-08-2020 18:40:00 21.5 C 10.18 g/m*3 21.5 C 3.2 km/h
Sensor: Nr:Datum:Temp:Abs-Feuchte:Windchill:Wind:
Aussen-T/F 226 30-08-2020 18:45:00 21.4 C 9.94 g/m*3 21.4 C 0 km/h
227 30-08-2020 18:50:00 21.3 C 9.88 g/m*3 21.3 C 8.1 km/h
228 30-08-2020 18:55:00 21.2 C 9.82 g/m*3 21.2 C 12.9 km/h
229 30-08-2020 19:00:00 21.2 C 9.82 g/m*3 21.2 C 6.4 km/h
230 30-08-2020 19:05:00 21.1 C 9.95 g/m*3 21.1 C 8.1 km/h
231 30-08-2020 19:10:00 20.9 C 10.02 g/m*3 20.9 C 8.1 km/h
232 30-08-2020 19:15:00 20.9 C 10.38 g/m*3 20.9 C 0 km/h
233 30-08-2020 19:20:00 20.8 C 10.14 g/m*3 20.8 C 3.2 km/h
234 30-08-2020 19:25:00 20.8 C 10.68 g/m*3 20.8 C 0 km/h
235 30-08-2020 19:30:00 20.7 C 10.08 g/m*3 20.7 C 0 km/h
236 30-08-2020 19:35:00 20.6 C 10.92 g/m*3 20.6 C 0 km/h
237 30-08-2020 19:40:00 20.4 C 10.61 g/m*3 20.4 C 0 km/h
238 30-08-2020 19:45:00 20.3 C 10.55 g/m*3 20.3 C 0 km/h
239 30-08-2020 19:50:00 20.1 C 10.95 g/m*3 20.1 C 0 km/h
240 30-08-2020 19:55:00 19.8 C 10.42 g/m*3 19.8 C 0 km/h
241 30-08-2020 20:00:00 19.6 C 10.8 g/m*3 19.6 C 0 km/h
242 30-08-2020 20:05:00 19.3 C 10.62 g/m*3 19.3 C 0 km/h
243 30-08-2020 20:10:00 19.1 C 10.33 g/m*3 19.1 C 0 km/h
244 30-08-2020 20:15:00 18.9 C 10.69 g/m*3 18.9 C 0 km/h
245 30-08-2020 20:20:00 18.8 C 10.79 g/m*3 18.8 C 0 km/h
246 30-08-2020 20:25:00 18.6 C 10.66 g/m*3 18.6 C 0 km/h
247 30-08-2020 20:30:00 18.4 C 10.7 g/m*3 18.4 C 0 km/h
248 30-08-2020 20:35:00 18.4 C 10.7 g/m*3 18.4 C 12.9 km/h
249 30-08-2020 20:40:00 18.7 C 10.89 g/m*3 18.7 C 9.7 km/h
250 30-08-2020 20:45:00 18.9 C 11.02 g/m*3 18.9 C 6.4 km/h
Sensor: Nr:Datum:Temp:Abs-Feuchte:Windchill:Wind:
Aussen-T/F 251 30-08-2020 20:50:00 19 C 11.24 g/m*3 19 C 9.7 km/h
252 30-08-2020 20:55:00 19.1 C 11.31 g/m*3 19.1 C 3.2 km/h
253 30-08-2020 21:00:00 19.1 C 11.31 g/m*3 19.1 C 4.8 km/h
254 30-08-2020 21:05:00 19.1 C 11.47 g/m*3 19.1 C 9.7 km/h
255 30-08-2020 21:10:00 19.1 C 11.47 g/m*3 19.1 C 8.1 km/h
256 30-08-2020 21:15:00 19 C 11.41 g/m*3 19 C 6.4 km/h
257 30-08-2020 21:20:00 19 C 11.57 g/m*3 19 C 4.8 km/h
258 30-08-2020 21:25:00 18.9 C 11.5 g/m*3 18.9 C 4.8 km/h
259 30-08-2020 21:30:00 18.9 C 11.5 g/m*3 18.9 C 4.8 km/h
260 30-08-2020 21:35:00 18.8 C 11.43 g/m*3 18.8 C 4.8 km/h
261 30-08-2020 21:40:00 18.8 C 11.6 g/m*3 18.8 C 0 km/h
262 30-08-2020 21:45:00 18.7 C 11.69 g/m*3 18.7 C 0 km/h
263 30-08-2020 21:50:00 18.6 C 11.62 g/m*3 18.6 C 0 km/h
264 30-08-2020 21:55:00 18.5 C 11.71 g/m*3 18.5 C 0 km/h
265 30-08-2020 22:00:00 18.3 C 11.57 g/m*3 18.3 C 0 km/h
266 30-08-2020 22:05:00 18.2 C 11.66 g/m*3 18.2 C 0 km/h
267 30-08-2020 22:10:00 18.1 C 11.59 g/m*3 18.1 C 0 km/h
268 30-08-2020 22:15:00 17.9 C 11.45 g/m*3 17.9 C 0 km/h
269 30-08-2020 22:20:00 17.8 C 11.54 g/m*3 17.8 C 0 km/h
270 30-08-2020 22:25:00 17.7 C 11.62 g/m*3 17.7 C 0 km/h
271 30-08-2020 22:30:00 17.6 C 11.55 g/m*3 17.6 C 0 km/h
272 30-08-2020 22:35:00 17.4 C 11.41 g/m*3 17.4 C 0 km/h
273 30-08-2020 22:40:00 17.3 C 11.49 g/m*3 17.3 C 0 km/h
274 30-08-2020 22:45:00 17.3 C 11.49 g/m*3 17.3 C 0 km/h
275 30-08-2020 22:50:00 17.2 C 11.42 g/m*3 17.2 C 0 km/h
Sensor: Nr:Datum:Temp:Abs-Feuchte:Windchill:Wind:
Aussen-T/F 276 30-08-2020 22:55:00 17.1 C 11.5 g/m*3 17.1 C 0 km/h
277 30-08-2020 23:00:00 17 C 11.43 g/m*3 17 C 0 km/h
278 30-08-2020 23:05:00 16.9 C 11.36 g/m*3 16.9 C 0 km/h
279 30-08-2020 23:10:00 16.8 C 11.29 g/m*3 16.8 C 0 km/h
280 30-08-2020 23:15:00 16.8 C 11.44 g/m*3 16.8 C 0 km/h
281 30-08-2020 23:20:00 16.7 C 11.37 g/m*3 16.7 C 0 km/h
282 30-08-2020 23:25:00 16.7 C 11.37 g/m*3 16.7 C 0 km/h
283 30-08-2020 23:30:00 16.7 C 11.37 g/m*3 16.7 C 0 km/h
284 30-08-2020 23:35:00 16.6 C 11.3 g/m*3 16.6 C 0 km/h
285 30-08-2020 23:40:00 16.6 C 11.3 g/m*3 16.6 C 0 km/h
286 30-08-2020 23:45:00 16.6 C 11.3 g/m*3 16.6 C 0 km/h
287 30-08-2020 23:50:00 16.5 C 11.23 g/m*3 16.5 C 0 km/h
288 30-08-2020 23:55:00 16.4 C 11.31 g/m*3 16.4 C 0 km/h

Legende:
   Min
   Max


Maximal/Minimal-Werte vom 30.08.2020 - 30.08.2020

Sensor Min Max Avg
Temp
(Aussen-T/F)
10.6 °C
30-08-2020  04:20:00
22.2 °C
30-08-2020  17:50:00
15.77 °C
Abs-Feuchte
(Aussen-T/F)
9.27 g/m*3
30-08-2020  04:20:00
11.87 g/m*3
30-08-2020  14:50:00
10.54 g/m*3
Windchill
(Aussen-T/F)
10.29 C
30-08-2020  07:00:00
22.2 C
30-08-2020  17:50:00
15.71 C

Die Daten stammen von einer Davis Vantage Pro 2 Wetter-Station und werden unter Linux mit der Software wview2wettercgi und aufbereitet. Alle Angaben erfolgen ohne Gewähr für ihre Vollständigkeit oder Richtigkeit.
Kontakt: Rainer Krienke krienke@uni-koblenz.de . Meine Webseiten an der Uni Koblenz oder privat.
Version: $Revision: 0.78 $